sensor_id;sensor_type;location;lat;lon;timestamp;P1;durP1;ratioP1;P2;durP2;ratioP2
46457;SDS011;32155;54.076;12.092;2023-04-30T00:01:08;14.90;;;3.10;;
46457;SDS011;32155;54.076;12.092;2023-04-30T00:03:33;17.05;;;3.20;;
46457;SDS011;32155;54.076;12.092;2023-04-30T00:05:59;13.15;;;3.75;;
46457;SDS011;32155;54.076;12.092;2023-04-30T00:08:24;16.67;;;3.65;;
46457;SDS011;32155;54.076;12.092;2023-04-30T00:10:54;20.42;;;3.72;;
46457;SDS011;32155;54.076;12.092;2023-04-30T00:13:19;13.82;;;3.85;;
46457;SDS011;32155;54.076;12.092;2023-04-30T00:15:45;12.23;;;3.20;;
46457;SDS011;32155;54.076;12.092;2023-04-30T00:18:11;10.25;;;3.15;;
46457;SDS011;32155;54.076;12.092;2023-04-30T00:20:36;16.40;;;3.63;;
46457;SDS011;32155;54.076;12.092;2023-04-30T00:23:02;15.82;;;3.50;;
46457;SDS011;32155;54.076;12.092;2023-04-30T00:25:27;10.50;;;3.30;;
46457;SDS011;32155;54.076;12.092;2023-04-30T00:27:53;13.68;;;3.13;;
46457;SDS011;32155;54.076;12.092;2023-04-30T00:30:19;12.65;;;3.13;;
46457;SDS011;32155;54.076;12.092;2023-04-30T00:32:44;14.75;;;3.03;;
46457;SDS011;32155;54.076;12.092;2023-04-30T00:35:10;16.33;;;3.83;;
46457;SDS011;32155;54.076;12.092;2023-04-30T00:37:36;12.73;;;3.75;;
46457;SDS011;32155;54.076;12.092;2023-04-30T00:40:02;11.80;;;3.00;;
46457;SDS011;32155;54.076;12.092;2023-04-30T00:42:28;13.85;;;3.30;;
46457;SDS011;32155;54.076;12.092;2023-04-30T00:44:56;17.13;;;3.50;;
46457;SDS011;32155;54.076;12.092;2023-04-30T00:47:23;12.93;;;3.25;;
46457;SDS011;32155;54.076;12.092;2023-04-30T00:49:49;17.95;;;3.33;;
46457;SDS011;32155;54.076;12.092;2023-04-30T00:52:15;15.85;;;4.32;;
46457;SDS011;32155;54.076;12.092;2023-04-30T00:54:41;18.65;;;3.63;;
46457;SDS011;32155;54.076;12.092;2023-04-30T00:57:07;17.00;;;3.75;;
46457;SDS011;32155;54.076;12.092;2023-04-30T00:59:38;13.80;;;3.33;;
46457;SDS011;32155;54.076;12.092;2023-04-30T01:02:05;15.82;;;3.33;;
46457;SDS011;32155;54.076;12.092;2023-04-30T01:04:32;18.30;;;3.38;;
46457;SDS011;32155;54.076;12.092;2023-04-30T01:06:59;12.77;;;2.88;;
46457;SDS011;32155;54.076;12.092;2023-04-30T01:09:26;9.68;;;3.33;;
46457;SDS011;32155;54.076;12.092;2023-04-30T01:11:59;10.25;;;2.97;;
46457;SDS011;32155;54.076;12.092;2023-04-30T01:17:36;15.18;;;3.35;;
46457;SDS011;32155;54.076;12.092;2023-04-30T01:20:09;11.95;;;2.88;;
46457;SDS011;32155;54.076;12.092;2023-04-30T01:22:41;13.30;;;3.15;;
46457;SDS011;32155;54.076;12.092;2023-04-30T01:25:20;13.65;;;3.40;;
46457;SDS011;32155;54.076;12.092;2023-04-30T01:28:05;13.38;;;3.25;;
46457;SDS011;32155;54.076;12.092;2023-04-30T01:30:34;18.13;;;3.25;;
46457;SDS011;32155;54.076;12.092;2023-04-30T01:33:01;10.85;;;3.08;;
46457;SDS011;32155;54.076;12.092;2023-04-30T01:38:09;14.45;;;3.22;;
46457;SDS011;32155;54.076;12.092;2023-04-30T01:40:43;26.60;;;4.93;;
46457;SDS011;32155;54.076;12.092;2023-04-30T01:49:04;10.27;;;3.13;;
46457;SDS011;32155;54.076;12.092;2023-04-30T01:51:46;17.25;;;4.10;;
46457;SDS011;32155;54.076;12.092;2023-04-30T01:59:38;17.58;;;3.38;;
46457;SDS011;32155;54.076;12.092;2023-04-30T02:02:04;14.68;;;3.47;;
46457;SDS011;32155;54.076;12.092;2023-04-30T02:04:30;7.38;;;2.88;;
46457;SDS011;32155;54.076;12.092;2023-04-30T02:06:56;14.23;;;3.60;;
46457;SDS011;32155;54.076;12.092;2023-04-30T02:09:22;13.15;;;3.30;;
46457;SDS011;32155;54.076;12.092;2023-04-30T02:11:49;12.50;;;3.85;;
46457;SDS011;32155;54.076;12.092;2023-04-30T02:14:15;14.70;;;3.30;;
46457;SDS011;32155;54.076;12.092;2023-04-30T02:16:41;14.68;;;3.13;;
46457;SDS011;32155;54.076;12.092;2023-04-30T02:19:09;11.90;;;3.08;;
46457;SDS011;32155;54.076;12.092;2023-04-30T02:21:35;19.15;;;3.80;;
46457;SDS011;32155;54.076;12.092;2023-04-30T02:24:02;12.15;;;3.05;;
46457;SDS011;32155;54.076;12.092;2023-04-30T02:26:28;14.60;;;3.20;;
46457;SDS011;32155;54.076;12.092;2023-04-30T02:28:59;6.78;;;2.78;;
46457;SDS011;32155;54.076;12.092;2023-04-30T02:31:24;15.35;;;3.78;;
46457;SDS011;32155;54.076;12.092;2023-04-30T02:33:50;11.00;;;2.90;;
46457;SDS011;32155;54.076;12.092;2023-04-30T02:36:18;8.48;;;2.97;;
46457;SDS011;32155;54.076;12.092;2023-04-30T02:38:43;19.17;;;3.92;;
46457;SDS011;32155;54.076;12.092;2023-04-30T02:41:09;15.82;;;3.90;;
46457;SDS011;32155;54.076;12.092;2023-04-30T02:43:35;12.57;;;3.58;;
46457;SDS011;32155;54.076;12.092;2023-04-30T02:46:00;8.75;;;3.10;;
46457;SDS011;32155;54.076;12.092;2023-04-30T02:48:26;21.52;;;3.65;;
46457;SDS011;32155;54.076;12.092;2023-04-30T02:50:51;13.10;;;3.28;;
46457;SDS011;32155;54.076;12.092;2023-04-30T02:53:17;9.90;;;3.38;;
46457;SDS011;32155;54.076;12.092;2023-04-30T02:55:43;15.98;;;3.85;;
46457;SDS011;32155;54.076;12.092;2023-04-30T02:58:08;15.23;;;4.00;;
46457;SDS011;32155;54.076;12.092;2023-04-30T03:00:34;11.93;;;3.42;;
46457;SDS011;32155;54.076;12.092;2023-04-30T03:02:59;14.07;;;3.55;;
46457;SDS011;32155;54.076;12.092;2023-04-30T03:05:26;14.90;;;3.20;;
46457;SDS011;32155;54.076;12.092;2023-04-30T03:07:54;11.43;;;3.33;;
46457;SDS011;32155;54.076;12.092;2023-04-30T03:10:22;13.70;;;3.75;;
46457;SDS011;32155;54.076;12.092;2023-04-30T03:12:48;15.98;;;3.40;;
46457;SDS011;32155;54.076;12.092;2023-04-30T03:15:16;19.25;;;3.60;;
46457;SDS011;32155;54.076;12.092;2023-04-30T03:17:42;9.95;;;3.10;;
46457;SDS011;32155;54.076;12.092;2023-04-30T03:20:10;12.73;;;3.17;;
46457;SDS011;32155;54.076;12.092;2023-04-30T03:22:43;9.70;;;3.40;;
46457;SDS011;32155;54.076;12.092;2023-04-30T03:25:11;19.33;;;3.58;;
46457;SDS011;32155;54.076;12.092;2023-04-30T03:27:36;15.05;;;3.28;;
46457;SDS011;32155;54.076;12.092;2023-04-30T03:30:02;11.55;;;2.95;;
46457;SDS011;32155;54.076;12.092;2023-04-30T03:32:28;11.73;;;3.03;;
46457;SDS011;32155;54.076;12.092;2023-04-30T03:34:56;18.90;;;3.40;;
46457;SDS011;32155;54.076;12.092;2023-04-30T03:37:21;12.98;;;3.20;;
46457;SDS011;32155;54.076;12.092;2023-04-30T03:39:52;9.80;;;2.47;;
46457;SDS011;32155;54.076;12.092;2023-04-30T03:42:17;11.57;;;3.08;;
46457;SDS011;32155;54.076;12.092;2023-04-30T03:44:43;7.38;;;2.60;;
46457;SDS011;32155;54.076;12.092;2023-04-30T03:47:08;11.18;;;3.03;;
46457;SDS011;32155;54.076;12.092;2023-04-30T03:49:34;10.32;;;3.00;;
46457;SDS011;32155;54.076;12.092;2023-04-30T03:52:00;9.20;;;2.75;;
46457;SDS011;32155;54.076;12.092;2023-04-30T03:54:29;10.80;;;2.97;;
46457;SDS011;32155;54.076;12.092;2023-04-30T03:56:57;15.27;;;3.40;;
46457;SDS011;32155;54.076;12.092;2023-04-30T03:59:23;9.15;;;3.00;;
46457;SDS011;32155;54.076;12.092;2023-04-30T04:01:49;9.38;;;2.80;;
46457;SDS011;32155;54.076;12.092;2023-04-30T04:04:15;8.98;;;2.40;;
46457;SDS011;32155;54.076;12.092;2023-04-30T04:06:44;10.98;;;3.35;;
46457;SDS011;32155;54.076;12.092;2023-04-30T04:09:09;12.27;;;2.95;;
46457;SDS011;32155;54.076;12.092;2023-04-30T04:11:35;13.07;;;3.00;;
46457;SDS011;32155;54.076;12.092;2023-04-30T04:14:01;9.43;;;3.15;;
46457;SDS011;32155;54.076;12.092;2023-04-30T04:16:26;10.15;;;3.25;;
46457;SDS011;32155;54.076;12.092;2023-04-30T04:18:52;17.50;;;3.08;;
46457;SDS011;32155;54.076;12.092;2023-04-30T04:21:18;11.85;;;3.33;;
46457;SDS011;32155;54.076;12.092;2023-04-30T04:23:43;19.13;;;3.42;;
46457;SDS011;32155;54.076;12.092;2023-04-30T04:26:09;24.42;;;3.97;;
46457;SDS011;32155;54.076;12.092;2023-04-30T04:28:36;9.43;;;2.95;;
46457;SDS011;32155;54.076;12.092;2023-04-30T04:31:05;11.70;;;3.33;;
46457;SDS011;32155;54.076;12.092;2023-04-30T04:33:31;11.55;;;2.88;;
46457;SDS011;32155;54.076;12.092;2023-04-30T04:35:57;11.20;;;2.80;;
46457;SDS011;32155;54.076;12.092;2023-04-30T04:38:25;15.20;;;2.80;;
46457;SDS011;32155;54.076;12.092;2023-04-30T14:40:59;7.22;;;2.50;;
46457;SDS011;32155;54.076;12.092;2023-04-30T14:43:54;5.90;;;2.53;;
46457;SDS011;32155;54.076;12.092;2023-04-30T14:46:20;7.45;;;2.40;;
46457;SDS011;32155;54.076;12.092;2023-04-30T14:51:17;13.32;;;2.88;;
46457;SDS011;32155;54.076;12.092;2023-04-30T14:54:34;11.27;;;2.53;;
46457;SDS011;32155;54.076;12.092;2023-04-30T14:57:01;10.88;;;3.13;;
46457;SDS011;32155;54.076;12.092;2023-04-30T14:59:30;8.60;;;2.40;;
46457;SDS011;32155;54.076;12.092;2023-04-30T15:01:57;8.30;;;2.83;;
46457;SDS011;32155;54.076;12.092;2023-04-30T15:06:48;6.60;;;2.45;;
46457;SDS011;32155;54.076;12.092;2023-04-30T15:09:16;8.00;;;2.55;;
46457;SDS011;32155;54.076;12.092;2023-04-30T15:11:48;8.98;;;3.45;;
46457;SDS011;32155;54.076;12.092;2023-04-30T15:14:16;14.05;;;2.60;;
46457;SDS011;32155;54.076;12.092;2023-04-30T15:16:44;9.63;;;2.90;;
46457;SDS011;32155;54.076;12.092;2023-04-30T15:19:09;6.65;;;2.28;;
46457;SDS011;32155;54.076;12.092;2023-04-30T15:21:35;10.02;;;3.10;;
46457;SDS011;32155;54.076;12.092;2023-04-30T15:26:27;7.63;;;2.47;;
46457;SDS011;32155;54.076;12.092;2023-04-30T15:28:54;8.43;;;2.90;;
46457;SDS011;32155;54.076;12.092;2023-04-30T15:31:23;9.25;;;2.85;;
46457;SDS011;32155;54.076;12.092;2023-04-30T15:33:48;8.20;;;2.80;;
46457;SDS011;32155;54.076;12.092;2023-04-30T15:39:46;7.35;;;3.03;;
46457;SDS011;32155;54.076;12.092;2023-04-30T15:42:21;8.57;;;3.15;;
46457;SDS011;32155;54.076;12.092;2023-04-30T15:44:49;6.18;;;2.35;;
46457;SDS011;32155;54.076;12.092;2023-04-30T15:47:16;10.75;;;2.70;;
46457;SDS011;32155;54.076;12.092;2023-04-30T15:49:44;7.50;;;2.67;;
46457;SDS011;32155;54.076;12.092;2023-04-30T15:52:12;6.47;;;2.50;;
46457;SDS011;32155;54.076;12.092;2023-04-30T15:54:40;8.90;;;3.17;;
46457;SDS011;32155;54.076;12.092;2023-04-30T15:57:07;6.65;;;2.83;;
46457;SDS011;32155;54.076;12.092;2023-04-30T15:59:33;8.18;;;3.47;;
46457;SDS011;32155;54.076;12.092;2023-04-30T16:01:59;6.95;;;2.90;;
46457;SDS011;32155;54.076;12.092;2023-04-30T16:04:28;16.40;;;2.85;;
46457;SDS011;32155;54.076;12.092;2023-04-30T16:06:54;10.52;;;2.60;;
46457;SDS011;32155;54.076;12.092;2023-04-30T16:09:24;7.65;;;2.72;;
46457;SDS011;32155;54.076;12.092;2023-04-30T16:11:53;7.90;;;3.08;;
46457;SDS011;32155;54.076;12.092;2023-04-30T16:14:29;9.90;;;2.80;;
46457;SDS011;32155;54.076;12.092;2023-04-30T16:16:57;7.10;;;2.65;;
46457;SDS011;32155;54.076;12.092;2023-04-30T16:19:22;9.82;;;3.25;;
46457;SDS011;32155;54.076;12.092;2023-04-30T16:24:16;12.30;;;3.17;;
46457;SDS011;32155;54.076;12.092;2023-04-30T16:26:46;10.00;;;3.03;;
46457;SDS011;32155;54.076;12.092;2023-04-30T16:29:23;10.18;;;2.88;;
46457;SDS011;32155;54.076;12.092;2023-04-30T16:31:52;7.57;;;2.60;;
46457;SDS011;32155;54.076;12.092;2023-04-30T16:34:18;12.15;;;3.15;;
46457;SDS011;32155;54.076;12.092;2023-04-30T16:36:49;7.85;;;3.25;;
46457;SDS011;32155;54.076;12.092;2023-04-30T16:39:15;9.38;;;3.03;;
46457;SDS011;32155;54.076;12.092;2023-04-30T16:41:41;7.75;;;3.13;;
46457;SDS011;32155;54.076;12.092;2023-04-30T16:44:07;10.75;;;2.97;;
46457;SDS011;32155;54.076;12.092;2023-04-30T16:46:34;8.68;;;2.75;;
46457;SDS011;32155;54.076;12.092;2023-04-30T16:49:03;12.85;;;3.40;;
46457;SDS011;32155;54.076;12.092;2023-04-30T16:51:29;9.27;;;2.60;;
46457;SDS011;32155;54.076;12.092;2023-04-30T16:53:59;8.15;;;3.05;;
46457;SDS011;32155;54.076;12.092;2023-04-30T16:56:29;11.77;;;3.00;;
46457;SDS011;32155;54.076;12.092;2023-04-30T16:59:05;12.38;;;3.53;;
46457;SDS011;32155;54.076;12.092;2023-04-30T17:01:31;13.90;;;3.17;;
46457;SDS011;32155;54.076;12.092;2023-04-30T17:03:57;7.68;;;3.40;;
46457;SDS011;32155;54.076;12.092;2023-04-30T17:06:23;9.13;;;3.22;;
46457;SDS011;32155;54.076;12.092;2023-04-30T17:11:17;8.35;;;3.50;;
46457;SDS011;32155;54.076;12.092;2023-04-30T17:13:45;9.52;;;2.80;;
46457;SDS011;32155;54.076;12.092;2023-04-30T17:16:13;9.55;;;3.45;;
46457;SDS011;32155;54.076;12.092;2023-04-30T18:56:46;17.33;;;7.07;;
46457;SDS011;32155;54.076;12.092;2023-04-30T18:59:36;17.95;;;6.15;;
46457;SDS011;32155;54.076;12.092;2023-04-30T19:02:50;17.13;;;6.72;;
46457;SDS011;32155;54.076;12.092;2023-04-30T19:05:58;12.73;;;6.00;;
46457;SDS011;32155;54.076;12.092;2023-04-30T19:08:52;13.00;;;5.80;;
46457;SDS011;32155;54.076;12.092;2023-04-30T19:22:55;22.00;;;11.20;;
46457;SDS011;32155;54.076;12.092;2023-04-30T19:26:07;19.92;;;10.27;;
46457;SDS011;32155;54.076;12.092;2023-04-30T19:36:23;91.82;;;41.08;;
46457;SDS011;32155;54.076;12.092;2023-04-30T19:39:12;68.22;;;29.70;;
46457;SDS011;32155;54.076;12.092;2023-04-30T19:45:24;34.10;;;15.90;;
46457;SDS011;32155;54.076;12.092;2023-04-30T19:48:43;28.50;;;13.15;;
46457;SDS011;32155;54.076;12.092;2023-04-30T19:51:34;43.40;;;19.77;;
46457;SDS011;32155;54.076;12.092;2023-04-30T20:01:28;41.15;;;17.05;;
46457;SDS011;32155;54.076;12.092;2023-04-30T23:21:04;25.55;;;10.00;;
46457;SDS011;32155;54.076;12.092;2023-04-30T23:23:31;20.83;;;9.68;;
46457;SDS011;32155;54.076;12.092;2023-04-30T23:25:59;15.20;;;8.65;;
46457;SDS011;32155;54.076;12.092;2023-04-30T23:28:25;21.90;;;10.07;;
46457;SDS011;32155;54.076;12.092;2023-04-30T23:30:54;18.20;;;8.43;;
46457;SDS011;32155;54.076;12.092;2023-04-30T23:33:19;17.02;;;8.30;;
46457;SDS011;32155;54.076;12.092;2023-04-30T23:35:45;18.42;;;6.70;;
46457;SDS011;32155;54.076;12.092;2023-04-30T23:38:12;14.05;;;6.57;;
46457;SDS011;32155;54.076;12.092;2023-04-30T23:40:38;16.02;;;5.95;;
46457;SDS011;32155;54.076;12.092;2023-04-30T23:43:05;18.35;;;6.80;;
46457;SDS011;32155;54.076;12.092;2023-04-30T23:45:32;18.35;;;7.50;;
46457;SDS011;32155;54.076;12.092;2023-04-30T23:47:57;20.95;;;7.45;;
46457;SDS011;32155;54.076;12.092;2023-04-30T23:50:25;16.23;;;5.72;;
46457;SDS011;32155;54.076;12.092;2023-04-30T23:52:51;16.48;;;7.15;;
46457;SDS011;32155;54.076;12.092;2023-04-30T23:55:20;22.20;;;7.07;;
46457;SDS011;32155;54.076;12.092;2023-04-30T23:57:48;18.88;;;7.25;;
